This is the latest recevied weather packets stored in our database for station/object KM4CNW. If no packets are shown the sender has not sent any weather packets the latest 10 day(s).
| Time | Temp. | Humidity | Pressure | Rain* | Wind** | Luminosity | Snow |
|---|---|---|---|---|---|---|---|
| 1777230620 | 22.22° C | 58% | 1009.2 hPa | 0 mm | - | 609 W/m² | - |
| 1777230315 | 22.22° C | 57% | 1009.1 hPa | 0 mm | - | 836 W/m² | - |
| 1777230013 | 21.67° C | 58% | 1009.2 hPa | 0 mm | - | 918 W/m² | - |
| 1777229710 | 21.67° C | 59% | 1009.3 hPa | 0 mm | - | 879 W/m² | - |
| 1777229406 | 21.11° C | 61% | 1009.3 hPa | 0 mm | - | 859 W/m² | - |
| 1777229103 | 21.11° C | 59% | 1009.4 hPa | 0 mm | - | 1007 W/m² | - |
| 1777228801 | 21.11° C | 61% | 1009.3 hPa | 0 mm | - | 428 W/m² | - |
| 1777228495 | 21.11° C | 60% | 1009.3 hPa | 0 mm | - | 483 W/m² | - |
| 1777228191 | 20.56° C | 63% | 1009.3 hPa | 0 mm | - | 353 W/m² | - |
| 1777227890 | 20.56° C | 62% | 1009.7 hPa | 0 mm | - | 587 W/m² | - |
| 1777227587 | 20.56° C | 62% | 1009.6 hPa | 0 mm | - | 918 W/m² | - |
| 1777227283 | 20.56° C | 65% | 1009.5 hPa | 0 mm | - | 422 W/m² | - |
| 1777226980 | 20° C | 67% | 1009.7 hPa | 0 mm | - | 358 W/m² | - |
| 1777226678 | 20° C | 67% | 1009.5 hPa | 0 mm | - | 341 W/m² | - |
| 1777226374 | 20° C | 69% | 1009.7 hPa | 0 mm | - | 305 W/m² | - |
| 1777226070 | 20° C | 66% | 1009.7 hPa | 0 mm | - | 301 W/m² | - |
| 1777225766 | 20° C | 64% | 1009.7 hPa | 0 mm | - | 549 W/m² | - |
| 1777225463 | 20° C | 67% | 1009.5 hPa | 0 mm | - | 368 W/m² | - |
| 1777225161 | 19.44° C | 67% | 1009.6 hPa | 0 mm | - | 416 W/m² | - |
| 1777224857 | 19.44° C | 70% | 1009.6 hPa | 0 mm | - | 449 W/m² | - |
| 1777224553 | 19.44° C | 69% | 1009.7 hPa | 0 mm | - | 400 W/m² | - |
| 1777224249 | 19.44° C | 70% | 1009.7 hPa | 0 mm | - | 276 W/m² | - |
| 1777223946 | 19.44° C | 71% | 1009.8 hPa | 0 mm | - | 336 W/m² | - |
| 1777223642 | 18.89° C | 73% | 1009.7 hPa | 0 mm | - | 380 W/m² | - |
| 1777223338 | 18.89° C | 75% | 1009.5 hPa | 0 mm | - | 210 W/m² | - |
* Rain latest hour (hover to see other rain measurements)
** Current wind speed in m/s (hover to see current wind gust speed)